createdAt,value
2023-07-06T01:35:43.806Z,3.20
2023-07-06T01:46:48.672Z,3.10
2023-07-06T01:58:01.087Z,4.20
2023-07-06T02:08:48.410Z,4.20
2023-07-06T02:19:48.275Z,5.70
2023-07-06T02:30:48.189Z,9.70
2023-07-06T02:41:48.033Z,7.40
2023-07-06T02:52:47.904Z,5.60
2023-07-06T03:03:47.826Z,3.70
2023-07-06T03:14:47.657Z,4.40
2023-07-06T03:25:47.541Z,4.30
2023-07-06T03:36:47.425Z,4.30
2023-07-06T03:47:47.650Z,5.50
2023-07-06T03:58:47.196Z,4.00
2023-07-06T04:09:47.059Z,4.60
2023-07-06T04:20:46.948Z,4.80
2023-07-06T04:31:46.940Z,5.80
2023-07-06T04:42:46.706Z,5.80
2023-07-06T04:53:46.571Z,4.00
2023-07-06T05:04:46.481Z,3.70
2023-07-06T05:15:46.366Z,4.20
2023-07-06T05:26:46.209Z,3.50
2023-07-06T05:37:46.076Z,4.90
2023-07-06T05:48:45.952Z,3.70
2023-07-06T05:59:45.859Z,5.50
2023-07-06T06:10:45.704Z,6.40
2023-07-06T06:21:45.612Z,7.60
2023-07-06T06:32:45.507Z,8.70
2023-07-06T06:43:45.366Z,6.60
2023-07-06T06:54:45.247Z,6.50
2023-07-06T07:05:45.094Z,6.80
2023-07-06T07:16:45.040Z,5.20
2023-07-06T07:27:44.850Z,5.50
2023-07-06T07:38:44.728Z,6.10
2023-07-06T07:49:44.620Z,5.50
2023-07-06T08:00:44.500Z,6.20
2023-07-06T08:11:44.377Z,5.00
2023-07-06T08:22:44.291Z,5.80
2023-07-06T08:33:44.161Z,3.80
2023-07-06T08:44:44.022Z,2.80
2023-07-06T08:55:43.936Z,2.80
2023-07-06T09:06:43.763Z,2.30
2023-07-06T09:17:43.702Z,1.90
2023-07-06T09:28:43.533Z,2.90
2023-07-06T09:39:43.410Z,1.90
2023-07-06T09:50:43.283Z,2.60
2023-07-06T09:51:39.872Z,2.70
2023-07-06T09:52:38.272Z,2.50
2023-07-06T10:03:43.193Z,3.70
2023-07-06T10:04:38.156Z,3.80
2023-07-06T10:05:38.214Z,2.80
2023-07-06T10:16:43.011Z,2.20
2023-07-06T10:27:42.874Z,2.70
2023-07-06T10:38:42.763Z,3.20
2023-07-06T10:49:42.672Z,2.40
2023-07-06T11:00:42.522Z,2.20
2023-07-06T11:11:42.400Z,2.60
2023-07-06T11:22:42.288Z,3.60
2023-07-06T11:33:42.146Z,3.40
2023-07-06T11:34:39.314Z,3.10
2023-07-06T11:35:37.137Z,2.70
2023-07-06T11:46:42.081Z,2.40
2023-07-06T11:47:37.040Z,2.30
2023-07-06T11:48:36.986Z,2.70
2023-07-06T11:59:41.958Z,1.90
2023-07-06T12:00:36.859Z,1.90
2023-07-06T12:01:36.937Z,4.30
2023-07-06T12:12:41.773Z,2.30
2023-07-06T12:13:36.777Z,2.50
2023-07-06T12:14:36.708Z,2.90
2023-07-06T12:25:41.633Z,2.40
2023-07-06T12:26:36.578Z,2.40
2023-07-06T12:27:36.575Z,2.50
2023-07-06T12:38:41.452Z,2.90
2023-07-06T12:49:41.331Z,3.00
2023-07-06T12:50:36.372Z,3.00
2023-07-06T12:51:36.324Z,3.20
2023-07-06T13:02:41.294Z,2.20
2023-07-06T13:03:36.174Z,2.10
2023-07-06T13:04:36.183Z,2.80
2023-07-06T13:15:41.139Z,2.60
2023-07-06T13:26:40.954Z,2.20
2023-07-06T13:37:40.825Z,2.40
2023-07-06T13:48:40.689Z,2.30
2023-07-06T13:59:40.568Z,2.80
2023-07-06T14:10:40.473Z,2.90
2023-07-06T14:21:40.364Z,3.20
2023-07-06T14:32:40.307Z,2.50
2023-07-06T14:43:40.086Z,2.50
2023-07-06T14:54:39.975Z,2.10
2023-07-06T15:05:39.852Z,2.20
2023-07-06T15:16:39.828Z,2.40
2023-07-06T15:27:40.803Z,2.40
2023-07-06T15:38:39.512Z,2.10
2023-07-06T15:49:39.360Z,2.10
2023-07-06T16:00:39.288Z,1.80
2023-07-06T16:11:39.134Z,1.90
2023-07-06T16:22:39.020Z,2.30
2023-07-06T16:33:38.887Z,2.50
2023-07-06T16:44:38.791Z,2.30
2023-07-06T16:55:38.674Z,3.10
2023-07-06T17:06:38.546Z,2.20
2023-07-06T17:17:38.448Z,2.30
2023-07-06T17:28:38.292Z,2.30
2023-07-06T17:39:38.167Z,2.20
2023-07-06T17:50:38.096Z,2.20
2023-07-06T18:01:37.963Z,2.00
2023-07-06T18:12:37.808Z,2.60
2023-07-06T18:23:37.691Z,2.70
2023-07-06T18:34:37.569Z,2.40
2023-07-06T18:45:42.903Z,2.50
2023-07-06T18:56:37.341Z,2.70
2023-07-06T19:07:48.090Z,2.10
2023-07-06T19:18:37.103Z,2.40
2023-07-06T19:29:36.963Z,2.90
2023-07-06T19:40:36.854Z,2.40
2023-07-06T19:51:36.782Z,3.40
2023-07-06T20:02:36.717Z,3.10
2023-07-06T20:13:36.571Z,2.60
2023-07-06T20:24:36.358Z,2.40
